createdAt,value
2023-05-25T00:01:30.760Z,12.20
2023-05-25T00:04:34.493Z,4.87
2023-05-25T00:07:36.770Z,7.20
2023-05-25T00:10:38.490Z,13.93
2023-05-25T00:13:40.539Z,10.03
2023-05-25T00:16:42.260Z,8.20
2023-05-25T00:19:44.356Z,8.13
2023-05-25T00:22:46.194Z,7.27
2023-05-25T00:25:47.951Z,6.07
2023-05-25T00:28:49.662Z,7.53
2023-05-25T00:31:51.840Z,6.23
2023-05-25T00:34:57.511Z,7.10
2023-05-25T00:41:31.487Z,15.30
2023-05-25T00:44:34.786Z,7.23
2023-05-25T00:47:37.137Z,11.60
2023-05-25T00:50:41.793Z,8.60
2023-05-25T00:53:43.836Z,10.87
2023-05-25T00:56:56.142Z,8.00
2023-05-25T00:59:58.951Z,7.30
2023-05-25T01:03:11.791Z,10.83
2023-05-25T01:06:16.924Z,9.30
2023-05-25T01:09:20.824Z,7.07
2023-05-25T01:12:27.080Z,7.53
2023-05-25T01:15:30.998Z,6.53
2023-05-25T01:18:33.780Z,11.10
2023-05-25T01:21:55.894Z,8.97
2023-05-25T01:25:07.724Z,7.20
2023-05-25T01:28:18.457Z,10.27
2023-05-25T01:31:22.612Z,12.97
2023-05-25T01:34:25.885Z,11.37
2023-05-25T01:37:28.065Z,12.40
2023-05-25T01:40:31.823Z,7.60
2023-05-25T01:43:36.008Z,9.30
2023-05-25T01:46:39.852Z,10.27
2023-05-25T01:50:01.161Z,6.63
2023-05-25T01:53:04.501Z,8.50
2023-05-25T01:56:09.082Z,8.93
2023-05-25T01:59:11.742Z,12.40
2023-05-25T02:26:52.085Z,8.10
2023-05-25T02:29:53.921Z,5.50
2023-05-25T02:32:56.541Z,11.87
2023-05-25T02:35:58.447Z,11.53
2023-05-25T02:39:02.007Z,10.20
2023-05-25T02:42:04.109Z,9.20
2023-05-25T02:45:10.442Z,6.87
2023-05-25T02:48:13.703Z,8.30
2023-05-25T02:54:47.574Z,13.10
2023-05-25T02:57:55.759Z,7.80
2023-05-25T03:01:18.872Z,11.47
2023-05-25T03:04:31.277Z,14.97
2023-05-25T03:07:33.573Z,6.70
2023-05-25T03:10:35.696Z,9.13
2023-05-25T03:13:37.515Z,14.13
2023-05-25T03:16:39.984Z,7.90
2023-05-25T03:19:42.566Z,12.70
2023-05-25T03:22:45.011Z,9.50
2023-05-25T03:25:47.113Z,14.03
2023-05-25T03:28:49.444Z,8.60
2023-05-25T03:31:51.411Z,9.73
2023-05-25T03:34:54.357Z,12.93
2023-05-25T03:41:27.082Z,8.37
2023-05-25T03:52:06.157Z,7.70
2023-05-25T03:55:08.250Z,9.73
2023-05-25T04:05:07.000Z,11.70
2023-05-25T04:08:09.848Z,7.60
2023-05-25T04:11:11.912Z,6.70
2023-05-25T04:14:13.676Z,8.20
2023-05-25T04:20:47.740Z,9.43
2023-05-25T04:27:22.145Z,13.60
2023-05-25T04:34:02.553Z,13.90
2023-05-25T04:37:08.849Z,13.23
2023-05-25T04:44:05.629Z,7.87
2023-05-25T04:57:42.169Z,11.20
2023-05-25T05:00:44.363Z,11.50
2023-05-25T05:03:46.642Z,12.10
2023-05-25T05:14:04.921Z,10.67
2023-05-25T05:17:07.446Z,9.67
2023-05-25T05:20:09.786Z,14.70
2023-05-25T05:47:33.085Z,11.03
2023-05-25T05:50:35.049Z,10.97
2023-05-25T05:57:01.437Z,11.17
2023-05-25T06:42:24.779Z,9.53
2023-05-25T06:45:30.863Z,9.37
2023-05-25T07:06:02.660Z,11.23
2023-05-25T07:12:41.911Z,11.10
2023-05-25T07:15:44.165Z,11.30
2023-05-25T07:18:46.582Z,11.50
2023-05-25T07:25:12.795Z,11.30
2023-05-25T07:28:14.698Z,13.67
2023-05-25T07:31:16.717Z,8.40
2023-05-25T07:38:01.455Z,10.30
2023-05-25T07:41:03.499Z,12.70
2023-05-25T07:44:06.658Z,10.60
2023-05-25T07:54:21.659Z,10.70
2023-05-25T07:57:23.605Z,10.70
2023-05-25T08:00:25.631Z,13.13
2023-05-25T08:17:58.788Z,11.40
2023-05-25T08:35:31.727Z,8.00
2023-05-25T09:03:20.152Z,14.43
2023-05-25T09:13:38.650Z,7.57
2023-05-25T09:16:41.608Z,12.00
2023-05-25T09:19:53.338Z,10.70
2023-05-25T09:22:57.269Z,10.00
2023-05-25T09:40:56.088Z,10.67
2023-05-25T09:44:10.588Z,15.33
2023-05-25T10:05:16.818Z,10.83
2023-05-25T10:22:36.293Z,9.73
2023-05-25T10:25:46.796Z,12.63
2023-05-25T10:28:51.931Z,8.07
2023-05-25T10:35:46.759Z,8.67
2023-05-25T10:45:44.560Z,9.33
2023-05-25T10:48:49.274Z,10.00
2023-05-25T10:52:01.731Z,10.93
2023-05-25T10:55:07.337Z,6.33
2023-05-25T11:12:40.902Z,8.43
2023-05-25T11:36:42.552Z,9.07
2023-05-25T11:39:48.640Z,7.97
2023-05-25T11:42:52.788Z,8.53
2023-05-25T11:45:57.854Z,5.67
2023-05-25T11:49:00.734Z,6.17
2023-05-25T11:52:08.805Z,8.90
2023-05-25T12:05:52.670Z,9.93
2023-05-25T12:16:09.842Z,8.07
2023-05-25T12:19:12.023Z,7.73
2023-05-25T12:26:13.354Z,7.20
2023-05-25T12:29:15.638Z,4.63
2023-05-25T12:39:51.629Z,9.60
2023-05-25T12:42:57.542Z,5.10
2023-05-25T12:45:59.997Z,5.13
2023-05-25T12:56:22.556Z,9.90
2023-05-25T13:09:56.834Z,8.60
2023-05-25T13:27:48.569Z,7.90
2023-05-25T13:30:50.653Z,8.63
2023-05-25T13:33:52.576Z,8.67
2023-05-25T13:36:54.435Z,7.67
2023-05-25T13:39:56.462Z,6.07
2023-05-25T14:01:15.901Z,10.93
2023-05-25T14:14:58.493Z,7.90
2023-05-25T14:18:00.594Z,7.00
2023-05-25T14:21:02.533Z,11.00
2023-05-25T14:24:04.904Z,7.93
2023-05-25T14:38:02.596Z,6.53
2023-05-25T15:12:43.965Z,8.63
2023-05-25T15:15:46.039Z,16.07
2023-05-25T15:29:24.744Z,8.27
2023-05-25T15:46:57.712Z,11.07
2023-05-25T15:53:36.025Z,12.90
2023-05-25T16:11:15.070Z,9.53
2023-05-25T16:42:18.002Z,15.03
2023-05-25T16:56:15.815Z,16.07
2023-05-25T16:59:17.561Z,11.10
2023-05-25T17:02:19.473Z,11.70
2023-05-25T17:05:21.226Z,13.30
2023-05-25T17:12:01.745Z,9.60
2023-05-25T17:18:35.026Z,12.60
2023-05-25T17:25:47.506Z,16.60
2023-05-25T17:50:45.772Z,10.63
2023-05-25T18:07:51.814Z,11.13
2023-05-25T18:10:57.511Z,14.20
2023-05-25T18:20:59.402Z,15.90
2023-05-25T18:24:01.254Z,14.97
2023-05-25T18:30:33.703Z,22.83
2023-05-25T18:47:27.258Z,13.13
2023-05-25T18:50:29.067Z,11.83
2023-05-25T18:53:30.866Z,13.97
2023-05-25T18:56:32.588Z,12.57
2023-05-25T18:59:34.458Z,15.30
2023-05-25T19:02:36.972Z,14.43
2023-05-25T19:05:39.001Z,17.10
2023-05-25T19:08:40.841Z,15.17
2023-05-25T19:11:42.701Z,14.77
2023-05-25T19:14:44.573Z,21.53
2023-05-25T19:17:47.002Z,13.07
2023-05-25T19:20:49.004Z,14.37
2023-05-25T19:23:54.551Z,15.23
2023-05-25T19:26:56.332Z,15.70
2023-05-25T19:29:59.127Z,19.40
2023-05-25T19:33:01.072Z,12.40
2023-05-25T19:36:03.006Z,13.83
2023-05-25T19:39:04.949Z,17.03
2023-05-25T19:42:06.869Z,15.33
2023-05-25T19:45:08.959Z,19.63
2023-05-25T20:05:53.024Z,15.43
2023-05-25T20:12:35.055Z,11.60
2023-05-25T20:15:39.634Z,18.60
2023-05-25T20:18:43.388Z,17.30
2023-05-25T20:28:30.044Z,21.33
2023-05-25T20:31:32.100Z,18.87
2023-05-25T20:34:33.945Z,20.07
2023-05-25T20:44:51.775Z,17.90
2023-05-25T20:54:55.745Z,18.97
2023-05-25T20:57:59.565Z,13.73
2023-05-25T21:01:01.341Z,22.43
2023-05-25T21:04:03.219Z,16.73
2023-05-25T21:07:05.582Z,20.83
2023-05-25T21:10:07.931Z,19.40
2023-05-25T21:16:51.263Z,15.43
2023-05-25T21:27:16.871Z,15.10
2023-05-25T21:30:20.879Z,13.13
2023-05-25T21:33:25.861Z,14.60
2023-05-25T21:36:27.700Z,15.57
2023-05-25T21:39:29.456Z,22.70
2023-05-25T21:42:31.236Z,15.47
2023-05-25T21:45:32.996Z,18.77
2023-05-25T21:48:34.775Z,16.13
2023-05-25T21:51:36.552Z,23.80
2023-05-25T21:54:38.720Z,18.47
2023-05-25T21:57:40.723Z,22.77
2023-05-25T22:00:42.566Z,16.37
2023-05-25T22:03:44.393Z,19.43
2023-05-25T22:06:46.287Z,14.83
2023-05-25T22:09:48.010Z,18.80
2023-05-25T22:12:49.725Z,22.50
2023-05-25T22:15:51.597Z,17.70
2023-05-25T22:18:53.362Z,17.63
2023-05-25T22:21:55.142Z,22.97
2023-05-25T22:24:56.906Z,19.10
2023-05-25T22:27:58.686Z,17.07
2023-05-25T22:31:00.525Z,13.47
2023-05-25T22:34:02.456Z,16.07
2023-05-25T22:37:04.503Z,19.50
2023-05-25T22:40:06.823Z,26.37
2023-05-25T22:43:12.687Z,18.13
2023-05-25T22:46:14.533Z,17.23
2023-05-25T22:49:16.366Z,23.03
2023-05-25T22:52:18.347Z,17.63
2023-05-25T22:55:20.331Z,18.90
2023-05-25T22:58:22.346Z,18.37
2023-05-25T23:01:24.174Z,14.43
2023-05-25T23:04:26.125Z,18.63
2023-05-25T23:07:27.950Z,17.60
2023-05-25T23:10:29.767Z,22.03
2023-05-25T23:13:31.967Z,16.87
2023-05-25T23:16:34.053Z,16.40
2023-05-25T23:19:35.887Z,16.40
2023-05-25T23:22:37.802Z,15.80
2023-05-25T23:25:39.831Z,16.60
2023-05-25T23:28:41.609Z,18.23
2023-05-25T23:31:43.479Z,15.03
2023-05-25T23:34:45.367Z,20.80
2023-05-25T23:37:47.190Z,19.43
2023-05-25T23:40:48.966Z,23.17
2023-05-25T23:43:50.903Z,20.53
2023-05-25T23:46:52.798Z,11.40
2023-05-25T23:49:54.542Z,20.23
2023-05-25T23:52:56.336Z,21.67
2023-05-25T23:55:58.053Z,19.40
2023-05-25T23:58:59.818Z,20.13
